sensor_id;sensor_type;location;lat;lon;timestamp;P1;durP1;ratioP1;P2;durP2;ratioP2
20185;SDS011;10252;48.792;8.582;2022-08-25T00:02:49;3.45;;;3.10;;
20185;SDS011;10252;48.792;8.582;2022-08-25T00:07:50;3.65;;;3.15;;
20185;SDS011;10252;48.792;8.582;2022-08-25T00:12:51;3.58;;;3.28;;
20185;SDS011;10252;48.792;8.582;2022-08-25T00:17:53;4.97;;;3.78;;
20185;SDS011;10252;48.792;8.582;2022-08-25T00:22:54;4.28;;;3.88;;
20185;SDS011;10252;48.792;8.582;2022-08-25T00:27:55;3.83;;;3.22;;
20185;SDS011;10252;48.792;8.582;2022-08-25T00:32:58;4.88;;;4.00;;
20185;SDS011;10252;48.792;8.582;2022-08-25T00:37:59;3.47;;;3.20;;
20185;SDS011;10252;48.792;8.582;2022-08-25T00:43:00;4.28;;;3.88;;
20185;SDS011;10252;48.792;8.582;2022-08-25T00:48:02;4.53;;;4.10;;
20185;SDS011;10252;48.792;8.582;2022-08-25T00:53:03;4.60;;;4.07;;
20185;SDS011;10252;48.792;8.582;2022-08-25T00:58:07;4.07;;;3.67;;
20185;SDS011;10252;48.792;8.582;2022-08-25T01:03:13;4.35;;;3.95;;
20185;SDS011;10252;48.792;8.582;2022-08-25T01:08:14;3.53;;;3.22;;
20185;SDS011;10252;48.792;8.582;2022-08-25T01:13:23;4.38;;;3.97;;
20185;SDS011;10252;48.792;8.582;2022-08-25T01:18:25;3.80;;;3.50;;
20185;SDS011;10252;48.792;8.582;2022-08-25T01:23:27;5.13;;;4.30;;
20185;SDS011;10252;48.792;8.582;2022-08-25T01:28:28;4.43;;;4.03;;
20185;SDS011;10252;48.792;8.582;2022-08-25T01:33:29;4.40;;;4.00;;
20185;SDS011;10252;48.792;8.582;2022-08-25T01:38:30;4.40;;;4.00;;
20185;SDS011;10252;48.792;8.582;2022-08-25T01:43:34;4.25;;;3.80;;
20185;SDS011;10252;48.792;8.582;2022-08-25T01:48:36;4.38;;;3.97;;
20185;SDS011;10252;48.792;8.582;2022-08-25T01:53:37;4.53;;;4.13;;
20185;SDS011;10252;48.792;8.582;2022-08-25T01:58:39;4.65;;;4.22;;
20185;SDS011;10252;48.792;8.582;2022-08-25T02:03:41;4.43;;;3.78;;
20185;SDS011;10252;48.792;8.582;2022-08-25T02:08:43;5.72;;;4.55;;
20185;SDS011;10252;48.792;8.582;2022-08-25T02:13:44;5.68;;;3.65;;
20185;SDS011;10252;48.792;8.582;2022-08-25T02:18:45;4.90;;;3.95;;
20185;SDS011;10252;48.792;8.582;2022-08-25T02:23:46;4.78;;;4.28;;
20185;SDS011;10252;48.792;8.582;2022-08-25T02:28:48;4.25;;;3.90;;
20185;SDS011;10252;48.792;8.582;2022-08-25T02:33:50;4.80;;;3.85;;
20185;SDS011;10252;48.792;8.582;2022-08-25T02:38:51;4.47;;;4.07;;
20185;SDS011;10252;48.792;8.582;2022-08-25T02:43:52;4.55;;;4.05;;
20185;SDS011;10252;48.792;8.582;2022-08-25T02:48:54;6.07;;;4.28;;
20185;SDS011;10252;48.792;8.582;2022-08-25T02:53:55;5.22;;;4.70;;
20185;SDS011;10252;48.792;8.582;2022-08-25T02:58:57;3.95;;;3.65;;
20185;SDS011;10252;48.792;8.582;2022-08-25T03:03:58;4.70;;;4.20;;
20185;SDS011;10252;48.792;8.582;2022-08-25T03:09:00;4.65;;;4.22;;
20185;SDS011;10252;48.792;8.582;2022-08-25T03:14:01;4.82;;;4.32;;
20185;SDS011;10252;48.792;8.582;2022-08-25T03:19:03;5.28;;;4.35;;
20185;SDS011;10252;48.792;8.582;2022-08-25T03:24:05;4.32;;;3.92;;
20185;SDS011;10252;48.792;8.582;2022-08-25T03:29:06;5.32;;;4.32;;
20185;SDS011;10252;48.792;8.582;2022-08-25T03:34:08;5.35;;;4.10;;
20185;SDS011;10252;48.792;8.582;2022-08-25T03:39:09;5.35;;;4.50;;
20185;SDS011;10252;48.792;8.582;2022-08-25T03:44:10;4.15;;;3.75;;
20185;SDS011;10252;48.792;8.582;2022-08-25T03:49:20;5.90;;;4.53;;
20185;SDS011;10252;48.792;8.582;2022-08-25T03:54:22;5.05;;;4.18;;
20185;SDS011;10252;48.792;8.582;2022-08-25T03:59:23;5.00;;;4.50;;
20185;SDS011;10252;48.792;8.582;2022-08-25T04:04:26;4.65;;;4.20;;
20185;SDS011;10252;48.792;8.582;2022-08-25T04:09:27;4.40;;;4.00;;
20185;SDS011;10252;48.792;8.582;2022-08-25T04:14:28;4.50;;;4.10;;
20185;SDS011;10252;48.792;8.582;2022-08-25T04:19:30;6.57;;;4.45;;
20185;SDS011;10252;48.792;8.582;2022-08-25T04:24:31;5.10;;;4.15;;
20185;SDS011;10252;48.792;8.582;2022-08-25T04:29:32;5.65;;;4.78;;
20185;SDS011;10252;48.792;8.582;2022-08-25T04:34:33;4.82;;;4.25;;
20185;SDS011;10252;48.792;8.582;2022-08-25T04:39:34;5.28;;;4.72;;
20185;SDS011;10252;48.792;8.582;2022-08-25T04:44:35;5.13;;;4.63;;
20185;SDS011;10252;48.792;8.582;2022-08-25T04:49:37;4.68;;;4.28;;
20185;SDS011;10252;48.792;8.582;2022-08-25T04:54:38;5.05;;;4.43;;
20185;SDS011;10252;48.792;8.582;2022-08-25T04:59:39;5.40;;;4.78;;
20185;SDS011;10252;48.792;8.582;2022-08-25T05:04:40;4.80;;;4.40;;
20185;SDS011;10252;48.792;8.582;2022-08-25T05:09:42;5.95;;;5.10;;
20185;SDS011;10252;48.792;8.582;2022-08-25T05:14:43;6.32;;;4.50;;
20185;SDS011;10252;48.792;8.582;2022-08-25T05:19:44;5.63;;;5.03;;
20185;SDS011;10252;48.792;8.582;2022-08-25T05:24:45;7.15;;;4.70;;
20185;SDS011;10252;48.792;8.582;2022-08-25T05:29:46;6.10;;;5.35;;
20185;SDS011;10252;48.792;8.582;2022-08-25T05:34:47;5.63;;;5.13;;
20185;SDS011;10252;48.792;8.582;2022-08-25T05:39:48;10.00;;;4.90;;
20185;SDS011;10252;48.792;8.582;2022-08-25T05:44:49;6.88;;;5.07;;
20185;SDS011;10252;48.792;8.582;2022-08-25T05:49:50;7.78;;;5.63;;
20185;SDS011;10252;48.792;8.582;2022-08-25T05:54:51;5.70;;;4.90;;
20185;SDS011;10252;48.792;8.582;2022-08-25T05:59:53;4.68;;;4.20;;
20185;SDS011;10252;48.792;8.582;2022-08-25T06:04:54;7.35;;;4.75;;
20185;SDS011;10252;48.792;8.582;2022-08-25T06:09:57;6.60;;;4.60;;
20185;SDS011;10252;48.792;8.582;2022-08-25T06:14:58;4.97;;;4.47;;
20185;SDS011;10252;48.792;8.582;2022-08-25T06:19:59;4.53;;;4.13;;
20185;SDS011;10252;48.792;8.582;2022-08-25T06:25:06;10.80;;;5.05;;
20185;SDS011;10252;48.792;8.582;2022-08-25T06:30:09;6.47;;;4.28;;
20185;SDS011;10252;48.792;8.582;2022-08-25T06:35:11;4.63;;;4.20;;
20185;SDS011;10252;48.792;8.582;2022-08-25T06:40:13;6.15;;;4.95;;
20185;SDS011;10252;48.792;8.582;2022-08-25T06:45:15;5.38;;;4.50;;
20185;SDS011;10252;48.792;8.582;2022-08-25T06:50:16;4.47;;;3.90;;
20185;SDS011;10252;48.792;8.582;2022-08-25T06:55:17;5.15;;;4.72;;
20185;SDS011;10252;48.792;8.582;2022-08-25T07:00:18;5.13;;;4.38;;
20185;SDS011;10252;48.792;8.582;2022-08-25T07:05:20;5.78;;;3.67;;
20185;SDS011;10252;48.792;8.582;2022-08-25T07:10:21;5.53;;;4.30;;
20185;SDS011;10252;48.792;8.582;2022-08-25T07:15:22;4.03;;;3.63;;
20185;SDS011;10252;48.792;8.582;2022-08-25T07:20:23;3.92;;;3.63;;
20185;SDS011;10252;48.792;8.582;2022-08-25T07:25:24;4.18;;;3.60;;
20185;SDS011;10252;48.792;8.582;2022-08-25T07:30:25;4.20;;;3.80;;
20185;SDS011;10252;48.792;8.582;2022-08-25T07:35:27;4.32;;;3.33;;
20185;SDS011;10252;48.792;8.582;2022-08-25T07:40:32;4.88;;;3.80;;
20185;SDS011;10252;48.792;8.582;2022-08-25T07:45:34;3.85;;;3.08;;
20185;SDS011;10252;48.792;8.582;2022-08-25T07:50:37;5.45;;;3.90;;
20185;SDS011;10252;48.792;8.582;2022-08-25T07:55:41;5.25;;;3.97;;
20185;SDS011;10252;48.792;8.582;2022-08-25T08:00:46;5.07;;;4.05;;
20185;SDS011;10252;48.792;8.582;2022-08-25T08:05:47;5.03;;;4.55;;
20185;SDS011;10252;48.792;8.582;2022-08-25T08:10:48;4.53;;;4.13;;
20185;SDS011;10252;48.792;8.582;2022-08-25T08:15:49;4.88;;;4.47;;
20185;SDS011;10252;48.792;8.582;2022-08-25T08:20:50;4.20;;;3.80;;
20185;SDS011;10252;48.792;8.582;2022-08-25T08:25:52;4.63;;;4.22;;
20185;SDS011;10252;48.792;8.582;2022-08-25T08:30:53;4.45;;;4.03;;
20185;SDS011;10252;48.792;8.582;2022-08-25T08:35:55;5.55;;;4.18;;
20185;SDS011;10252;48.792;8.582;2022-08-25T08:46:17;3.63;;;3.33;;
20185;SDS011;10252;48.792;8.582;2022-08-25T08:51:20;4.47;;;4.00;;
20185;SDS011;10252;48.792;8.582;2022-08-25T09:01:57;4.72;;;3.97;;
20185;SDS011;10252;48.792;8.582;2022-08-25T09:06:59;4.32;;;3.90;;
20185;SDS011;10252;48.792;8.582;2022-08-25T09:22:29;4.35;;;3.85;;
20185;SDS011;10252;48.792;8.582;2022-08-25T09:28:16;5.18;;;3.85;;
20185;SDS011;10252;48.792;8.582;2022-08-25T09:32:55;4.20;;;3.58;;
20185;SDS011;10252;48.792;8.582;2022-08-25T09:38:04;4.13;;;3.80;;
20185;SDS011;10252;48.792;8.582;2022-08-25T09:43:22;5.93;;;4.20;;
20185;SDS011;10252;48.792;8.582;2022-08-25T09:53:25;4.80;;;4.13;;
20185;SDS011;10252;48.792;8.582;2022-08-25T09:58:26;5.00;;;4.55;;
20185;SDS011;10252;48.792;8.582;2022-08-25T10:03:27;6.82;;;4.25;;
20185;SDS011;10252;48.792;8.582;2022-08-25T10:08:39;4.65;;;4.25;;
20185;SDS011;10252;48.792;8.582;2022-08-25T10:13:44;5.40;;;3.92;;
20185;SDS011;10252;48.792;8.582;2022-08-25T10:18:50;4.88;;;3.78;;
20185;SDS011;10252;48.792;8.582;2022-08-25T10:23:59;4.22;;;3.75;;
20185;SDS011;10252;48.792;8.582;2022-08-25T10:34:24;4.88;;;3.78;;
20185;SDS011;10252;48.792;8.582;2022-08-25T10:40:13;3.88;;;3.47;;
20185;SDS011;10252;48.792;8.582;2022-08-25T10:50:33;4.95;;;3.38;;
20185;SDS011;10252;48.792;8.582;2022-08-25T10:55:47;3.78;;;3.47;;
20185;SDS011;10252;48.792;8.582;2022-08-25T11:06:06;5.13;;;3.38;;
20185;SDS011;10252;48.792;8.582;2022-08-25T11:11:15;4.70;;;4.03;;
20185;SDS011;10252;48.792;8.582;2022-08-25T11:16:30;3.72;;;3.38;;
20185;SDS011;10252;48.792;8.582;2022-08-25T11:26:50;4.25;;;3.83;;
20185;SDS011;10252;48.792;8.582;2022-08-25T11:31:53;4.18;;;3.33;;
20185;SDS011;10252;48.792;8.582;2022-08-25T11:36:55;4.15;;;3.80;;
20185;SDS011;10252;48.792;8.582;2022-08-25T11:47:36;3.78;;;3.47;;
20185;SDS011;10252;48.792;8.582;2022-08-25T11:52:42;3.60;;;3.30;;
20185;SDS011;10252;48.792;8.582;2022-08-25T11:57:46;3.65;;;3.30;;
20185;SDS011;10252;48.792;8.582;2022-08-25T12:02:48;3.38;;;3.08;;
20185;SDS011;10252;48.792;8.582;2022-08-25T12:34:01;3.70;;;3.33;;
20185;SDS011;10252;48.792;8.582;2022-08-25T12:39:28;4.53;;;3.80;;
20185;SDS011;10252;48.792;8.582;2022-08-25T12:44:38;3.15;;;2.85;;
20185;SDS011;10252;48.792;8.582;2022-08-25T12:49:39;4.32;;;3.03;;
20185;SDS011;10252;48.792;8.582;2022-08-25T12:54:46;3.15;;;2.50;;
20185;SDS011;10252;48.792;8.582;2022-08-25T12:59:49;5.65;;;3.20;;
20185;SDS011;10252;48.792;8.582;2022-08-25T13:15:03;3.25;;;2.95;;
20185;SDS011;10252;48.792;8.582;2022-08-25T13:25:15;3.22;;;2.70;;
20185;SDS011;10252;48.792;8.582;2022-08-25T13:30:21;3.03;;;2.80;;
20185;SDS011;10252;48.792;8.582;2022-08-25T13:35:27;5.32;;;2.95;;
20185;SDS011;10252;48.792;8.582;2022-08-25T13:40:29;3.42;;;2.95;;
20185;SDS011;10252;48.792;8.582;2022-08-25T13:45:40;3.38;;;3.08;;
20185;SDS011;10252;48.792;8.582;2022-08-25T13:50:42;3.40;;;3.20;;
20185;SDS011;10252;48.792;8.582;2022-08-25T14:00:58;4.75;;;3.20;;
20185;SDS011;10252;48.792;8.582;2022-08-25T14:06:33;3.75;;;3.10;;
20185;SDS011;10252;48.792;8.582;2022-08-25T14:11:28;3.63;;;3.08;;
20185;SDS011;10252;48.792;8.582;2022-08-25T14:16:31;4.18;;;3.00;;
20185;SDS011;10252;48.792;8.582;2022-08-25T14:21:33;3.67;;;2.95;;
20185;SDS011;10252;48.792;8.582;2022-08-25T14:26:34;3.03;;;2.83;;
20185;SDS011;10252;48.792;8.582;2022-08-25T14:31:36;3.20;;;2.90;;
20185;SDS011;10252;48.792;8.582;2022-08-25T14:36:39;4.18;;;2.90;;
20185;SDS011;10252;48.792;8.582;2022-08-25T14:41:41;3.50;;;2.88;;
20185;SDS011;10252;48.792;8.582;2022-08-25T14:46:48;3.60;;;3.30;;
20185;SDS011;10252;48.792;8.582;2022-08-25T14:51:50;4.15;;;3.30;;
20185;SDS011;10252;48.792;8.582;2022-08-25T14:56:51;3.10;;;2.90;;
20185;SDS011;10252;48.792;8.582;2022-08-25T15:01:52;3.40;;;3.10;;
20185;SDS011;10252;48.792;8.582;2022-08-25T15:06:56;3.22;;;2.92;;
20185;SDS011;10252;48.792;8.582;2022-08-25T15:11:57;3.50;;;3.15;;
20185;SDS011;10252;48.792;8.582;2022-08-25T15:16:58;3.55;;;3.08;;
20185;SDS011;10252;48.792;8.582;2022-08-25T15:22:01;4.15;;;3.75;;
20185;SDS011;10252;48.792;8.582;2022-08-25T15:27:03;3.22;;;3.00;;
20185;SDS011;10252;48.792;8.582;2022-08-25T15:32:06;3.45;;;2.65;;
20185;SDS011;10252;48.792;8.582;2022-08-25T15:37:12;4.35;;;2.85;;
20185;SDS011;10252;48.792;8.582;2022-08-25T15:42:13;3.35;;;3.05;;
20185;SDS011;10252;48.792;8.582;2022-08-25T15:47:15;5.38;;;2.67;;
20185;SDS011;10252;48.792;8.582;2022-08-25T15:52:16;3.25;;;3.00;;
20185;SDS011;10252;48.792;8.582;2022-08-25T15:57:17;3.60;;;3.13;;
20185;SDS011;10252;48.792;8.582;2022-08-25T16:02:19;3.13;;;2.78;;
20185;SDS011;10252;48.792;8.582;2022-08-25T16:07:20;3.05;;;2.85;;
20185;SDS011;10252;48.792;8.582;2022-08-25T16:12:21;4.22;;;3.20;;
20185;SDS011;10252;48.792;8.582;2022-08-25T16:17:23;4.07;;;3.05;;
20185;SDS011;10252;48.792;8.582;2022-08-25T16:22:24;3.70;;;3.10;;
20185;SDS011;10252;48.792;8.582;2022-08-25T16:27:25;3.30;;;3.00;;
20185;SDS011;10252;48.792;8.582;2022-08-25T16:32:26;4.13;;;3.65;;
20185;SDS011;10252;48.792;8.582;2022-08-25T16:37:27;3.47;;;3.17;;
20185;SDS011;10252;48.792;8.582;2022-08-25T16:42:28;3.55;;;2.92;;
20185;SDS011;10252;48.792;8.582;2022-08-25T16:47:29;3.03;;;2.83;;
20185;SDS011;10252;48.792;8.582;2022-08-25T16:52:33;3.58;;;3.28;;
20185;SDS011;10252;48.792;8.582;2022-08-25T16:57:53;3.30;;;3.00;;
20185;SDS011;10252;48.792;8.582;2022-08-25T17:02:59;3.42;;;3.13;;
20185;SDS011;10252;48.792;8.582;2022-08-25T17:08:00;4.80;;;3.20;;
20185;SDS011;10252;48.792;8.582;2022-08-25T17:13:20;3.13;;;2.83;;
20185;SDS011;10252;48.792;8.582;2022-08-25T17:18:21;4.47;;;3.90;;
20185;SDS011;10252;48.792;8.582;2022-08-25T17:23:22;3.90;;;2.90;;
20185;SDS011;10252;48.792;8.582;2022-08-25T17:28:23;3.72;;;2.90;;
20185;SDS011;10252;48.792;8.582;2022-08-25T17:33:26;4.05;;;3.00;;
20185;SDS011;10252;48.792;8.582;2022-08-25T17:38:27;5.93;;;3.22;;
20185;SDS011;10252;48.792;8.582;2022-08-25T17:43:29;3.65;;;3.33;;
20185;SDS011;10252;48.792;8.582;2022-08-25T17:48:30;5.20;;;3.28;;
20185;SDS011;10252;48.792;8.582;2022-08-25T17:53:32;3.50;;;2.95;;
20185;SDS011;10252;48.792;8.582;2022-08-25T17:58:33;6.55;;;3.30;;
20185;SDS011;10252;48.792;8.582;2022-08-25T18:03:35;3.65;;;3.22;;
20185;SDS011;10252;48.792;8.582;2022-08-25T18:08:36;7.50;;;5.78;;
20185;SDS011;10252;48.792;8.582;2022-08-25T18:13:37;7.15;;;4.07;;
20185;SDS011;10252;48.792;8.582;2022-08-25T18:18:39;3.40;;;2.90;;
20185;SDS011;10252;48.792;8.582;2022-08-25T18:23:41;3.03;;;2.70;;
20185;SDS011;10252;48.792;8.582;2022-08-25T18:28:42;3.50;;;2.88;;
20185;SDS011;10252;48.792;8.582;2022-08-25T18:33:44;3.42;;;3.13;;
20185;SDS011;10252;48.792;8.582;2022-08-25T18:38:45;4.40;;;3.20;;
20185;SDS011;10252;48.792;8.582;2022-08-25T18:44:05;4.55;;;2.60;;
20185;SDS011;10252;48.792;8.582;2022-08-25T18:49:06;3.28;;;2.97;;
20185;SDS011;10252;48.792;8.582;2022-08-25T18:54:07;2.92;;;2.63;;
20185;SDS011;10252;48.792;8.582;2022-08-25T18:59:08;3.45;;;3.15;;
20185;SDS011;10252;48.792;8.582;2022-08-25T19:04:09;2.92;;;2.67;;
20185;SDS011;10252;48.792;8.582;2022-08-25T19:09:12;4.72;;;3.40;;
20185;SDS011;10252;48.792;8.582;2022-08-25T19:14:14;4.18;;;3.28;;
20185;SDS011;10252;48.792;8.582;2022-08-25T19:19:15;3.65;;;3.20;;
20185;SDS011;10252;48.792;8.582;2022-08-25T19:24:16;4.53;;;3.05;;
20185;SDS011;10252;48.792;8.582;2022-08-25T19:29:18;3.78;;;3.40;;
20185;SDS011;10252;48.792;8.582;2022-08-25T19:34:26;5.10;;;3.85;;
20185;SDS011;10252;48.792;8.582;2022-08-25T19:39:29;3.53;;;3.22;;
20185;SDS011;10252;48.792;8.582;2022-08-25T19:44:30;4.03;;;3.05;;
20185;SDS011;10252;48.792;8.582;2022-08-25T19:49:32;5.10;;;4.03;;
20185;SDS011;10252;48.792;8.582;2022-08-25T19:54:36;4.13;;;3.70;;
20185;SDS011;10252;48.792;8.582;2022-08-25T19:59:38;5.45;;;3.40;;
20185;SDS011;10252;48.792;8.582;2022-08-25T20:04:40;3.38;;;3.08;;
20185;SDS011;10252;48.792;8.582;2022-08-25T20:09:41;4.75;;;3.63;;
20185;SDS011;10252;48.792;8.582;2022-08-25T20:14:42;4.40;;;3.42;;
20185;SDS011;10252;48.792;8.582;2022-08-25T20:19:43;6.43;;;3.78;;
20185;SDS011;10252;48.792;8.582;2022-08-25T20:24:45;3.92;;;3.63;;
20185;SDS011;10252;48.792;8.582;2022-08-25T20:29:49;4.53;;;3.92;;
20185;SDS011;10252;48.792;8.582;2022-08-25T20:34:51;4.28;;;3.60;;
20185;SDS011;10252;48.792;8.582;2022-08-25T20:39:53;4.50;;;3.78;;
20185;SDS011;10252;48.792;8.582;2022-08-25T20:44:54;4.22;;;3.65;;
20185;SDS011;10252;48.792;8.582;2022-08-25T20:49:56;3.97;;;3.67;;
20185;SDS011;10252;48.792;8.582;2022-08-25T20:54:58;4.45;;;3.88;;
20185;SDS011;10252;48.792;8.582;2022-08-25T20:59:59;4.40;;;4.00;;
20185;SDS011;10252;48.792;8.582;2022-08-25T21:05:00;4.47;;;4.07;;
20185;SDS011;10252;48.792;8.582;2022-08-25T21:10:04;5.95;;;4.10;;
20185;SDS011;10252;48.792;8.582;2022-08-25T21:15:06;4.30;;;3.90;;
20185;SDS011;10252;48.792;8.582;2022-08-25T21:20:07;5.32;;;4.07;;
20185;SDS011;10252;48.792;8.582;2022-08-25T21:25:08;4.68;;;3.95;;
20185;SDS011;10252;48.792;8.582;2022-08-25T21:30:10;5.88;;;4.03;;
20185;SDS011;10252;48.792;8.582;2022-08-25T21:35:11;3.92;;;3.53;;
20185;SDS011;10252;48.792;8.582;2022-08-25T21:40:12;4.65;;;4.13;;
20185;SDS011;10252;48.792;8.582;2022-08-25T21:45:13;6.50;;;4.30;;
20185;SDS011;10252;48.792;8.582;2022-08-25T21:50:14;4.95;;;4.10;;
20185;SDS011;10252;48.792;8.582;2022-08-25T21:55:15;5.28;;;4.20;;
20185;SDS011;10252;48.792;8.582;2022-08-25T22:00:17;4.97;;;4.40;;
20185;SDS011;10252;48.792;8.582;2022-08-25T22:05:18;4.80;;;4.15;;
20185;SDS011;10252;48.792;8.582;2022-08-25T22:10:19;5.47;;;4.05;;
20185;SDS011;10252;48.792;8.582;2022-08-25T22:15:20;4.75;;;4.22;;
20185;SDS011;10252;48.792;8.582;2022-08-25T22:20:22;7.18;;;4.68;;
20185;SDS011;10252;48.792;8.582;2022-08-25T22:25:24;7.32;;;4.28;;
20185;SDS011;10252;48.792;8.582;2022-08-25T22:30:25;5.15;;;4.65;;
20185;SDS011;10252;48.792;8.582;2022-08-25T22:35:26;4.75;;;4.25;;
20185;SDS011;10252;48.792;8.582;2022-08-25T22:40:31;4.72;;;4.28;;
20185;SDS011;10252;48.792;8.582;2022-08-25T22:45:35;5.13;;;4.65;;
20185;SDS011;10252;48.792;8.582;2022-08-25T22:50:37;7.32;;;4.68;;
20185;SDS011;10252;48.792;8.582;2022-08-25T22:55:41;6.38;;;4.93;;
20185;SDS011;10252;48.792;8.582;2022-08-25T23:00:43;6.15;;;5.20;;
20185;SDS011;10252;48.792;8.582;2022-08-25T23:05:44;5.90;;;5.30;;
20185;SDS011;10252;48.792;8.582;2022-08-25T23:10:52;5.57;;;5.07;;
20185;SDS011;10252;48.792;8.582;2022-08-25T23:15:53;5.30;;;4.80;;
20185;SDS011;10252;48.792;8.582;2022-08-25T23:20:55;6.22;;;4.80;;
20185;SDS011;10252;48.792;8.582;2022-08-25T23:26:15;5.50;;;5.00;;
20185;SDS011;10252;48.792;8.582;2022-08-25T23:31:16;5.35;;;4.85;;
20185;SDS011;10252;48.792;8.582;2022-08-25T23:36:19;5.07;;;4.57;;
20185;SDS011;10252;48.792;8.582;2022-08-25T23:41:21;5.22;;;4.72;;
20185;SDS011;10252;48.792;8.582;2022-08-25T23:46:23;6.60;;;5.32;;
20185;SDS011;10252;48.792;8.582;2022-08-25T23:51:26;6.28;;;5.47;;
20185;SDS011;10252;48.792;8.582;2022-08-25T23:56:28;5.57;;;4.63;;
